sensor_id;sensor_type;location;lat;lon;timestamp;temperature;humidity
28532;DHT22;15738;44.860;10.066;2023-01-26T00:02:17;4.10;99.90
28532;DHT22;15738;44.860;10.066;2023-01-26T00:05:02;4.10;99.90
28532;DHT22;15738;44.860;10.066;2023-01-26T00:07:48;4.10;99.90
28532;DHT22;15738;44.860;10.066;2023-01-26T00:10:34;4.20;99.90
28532;DHT22;15738;44.860;10.066;2023-01-26T00:13:20;4.10;99.90
28532;DHT22;15738;44.860;10.066;2023-01-26T00:16:08;4.10;99.90
28532;DHT22;15738;44.860;10.066;2023-01-26T00:18:54;4.10;99.90
28532;DHT22;15738;44.860;10.066;2023-01-26T00:21:40;4.10;99.90
28532;DHT22;15738;44.860;10.066;2023-01-26T00:24:26;4.10;99.90
28532;DHT22;15738;44.860;10.066;2023-01-26T00:27:11;4.00;99.90
28532;DHT22;15738;44.860;10.066;2023-01-26T00:29:56;4.00;99.90
28532;DHT22;15738;44.860;10.066;2023-01-26T00:32:42;3.90;99.90
28532;DHT22;15738;44.860;10.066;2023-01-26T00:35:28;3.90;99.90
28532;DHT22;15738;44.860;10.066;2023-01-26T00:38:13;3.90;99.90
28532;DHT22;15738;44.860;10.066;2023-01-26T00:40:59;3.90;99.90
28532;DHT22;15738;44.860;10.066;2023-01-26T00:43:44;3.90;99.90
28532;DHT22;15738;44.860;10.066;2023-01-26T00:46:30;3.80;99.90
28532;DHT22;15738;44.860;10.066;2023-01-26T00:49:17;3.70;99.90
28532;DHT22;15738;44.860;10.066;2023-01-26T00:52:03;3.80;99.90
28532;DHT22;15738;44.860;10.066;2023-01-26T00:54:49;3.80;99.90
28532;DHT22;15738;44.860;10.066;2023-01-26T00:57:34;3.80;99.90
28532;DHT22;15738;44.860;10.066;2023-01-26T01:00:20;3.80;99.90
28532;DHT22;15738;44.860;10.066;2023-01-26T01:03:06;3.80;99.90
28532;DHT22;15738;44.860;10.066;2023-01-26T01:05:51;3.80;99.90
28532;DHT22;15738;44.860;10.066;2023-01-26T01:08:37;3.80;99.90
28532;DHT22;15738;44.860;10.066;2023-01-26T01:11:24;3.80;99.90
28532;DHT22;15738;44.860;10.066;2023-01-26T01:14:10;3.80;99.90
28532;DHT22;15738;44.860;10.066;2023-01-26T01:16:56;3.70;99.90
28532;DHT22;15738;44.860;10.066;2023-01-26T01:19:41;3.70;99.90
28532;DHT22;15738;44.860;10.066;2023-01-26T01:22:27;3.70;99.90
28532;DHT22;15738;44.860;10.066;2023-01-26T01:25:13;3.70;99.90
28532;DHT22;15738;44.860;10.066;2023-01-26T01:27:59;3.70;99.90
28532;DHT22;15738;44.860;10.066;2023-01-26T01:30:45;3.70;99.90
28532;DHT22;15738;44.860;10.066;2023-01-26T01:33:31;3.70;99.90
28532;DHT22;15738;44.860;10.066;2023-01-26T01:36:17;3.70;99.90
28532;DHT22;15738;44.860;10.066;2023-01-26T01:39:03;3.80;99.90
28532;DHT22;15738;44.860;10.066;2023-01-26T01:41:48;3.80;99.90
28532;DHT22;15738;44.860;10.066;2023-01-26T01:44:35;3.90;99.90
28532;DHT22;15738;44.860;10.066;2023-01-26T01:47:21;3.90;99.90
28532;DHT22;15738;44.860;10.066;2023-01-26T01:50:11;3.90;99.90
28532;DHT22;15738;44.860;10.066;2023-01-26T01:53:00;4.00;99.90
28532;DHT22;15738;44.860;10.066;2023-01-26T01:55:46;3.90;99.90
28532;DHT22;15738;44.860;10.066;2023-01-26T01:58:32;3.90;99.90
28532;DHT22;15738;44.860;10.066;2023-01-26T02:01:21;3.90;99.90
28532;DHT22;15738;44.860;10.066;2023-01-26T02:04:07;3.90;99.90
28532;DHT22;15738;44.860;10.066;2023-01-26T02:06:57;3.80;99.90
28532;DHT22;15738;44.860;10.066;2023-01-26T02:09:43;3.70;99.90
28532;DHT22;15738;44.860;10.066;2023-01-26T02:12:49;3.80;99.90
28532;DHT22;15738;44.860;10.066;2023-01-26T02:15:35;3.80;99.90
28532;DHT22;15738;44.860;10.066;2023-01-26T02:18:21;3.90;99.90
28532;DHT22;15738;44.860;10.066;2023-01-26T02:21:08;3.90;99.90
28532;DHT22;15738;44.860;10.066;2023-01-26T02:26:41;4.00;99.90
28532;DHT22;15738;44.860;10.066;2023-01-26T02:29:27;4.00;99.90
28532;DHT22;15738;44.860;10.066;2023-01-26T02:32:13;4.00;99.90
28532;DHT22;15738;44.860;10.066;2023-01-26T02:34:58;4.10;99.90
28532;DHT22;15738;44.860;10.066;2023-01-26T02:37:44;4.10;99.90
28532;DHT22;15738;44.860;10.066;2023-01-26T02:40:37;4.10;99.90
28532;DHT22;15738;44.860;10.066;2023-01-26T02:43:25;4.20;99.90
28532;DHT22;15738;44.860;10.066;2023-01-26T02:46:11;4.20;99.90
28532;DHT22;15738;44.860;10.066;2023-01-26T02:48:57;4.20;99.90
28532;DHT22;15738;44.860;10.066;2023-01-26T02:52:03;4.10;99.90
28532;DHT22;15738;44.860;10.066;2023-01-26T02:54:50;4.20;99.90
28532;DHT22;15738;44.860;10.066;2023-01-26T02:58:02;4.10;99.90
28532;DHT22;15738;44.860;10.066;2023-01-26T03:00:50;4.10;99.90
28532;DHT22;15738;44.860;10.066;2023-01-26T03:03:36;4.20;99.90
28532;DHT22;15738;44.860;10.066;2023-01-26T03:06:31;4.10;99.90
28532;DHT22;15738;44.860;10.066;2023-01-26T03:09:16;4.10;99.90
28532;DHT22;15738;44.860;10.066;2023-01-26T03:12:02;4.10;99.90
28532;DHT22;15738;44.860;10.066;2023-01-26T03:14:48;4.00;99.90
28532;DHT22;15738;44.860;10.066;2023-01-26T03:18:04;4.00;99.90
28532;DHT22;15738;44.860;10.066;2023-01-26T03:21:11;3.90;99.90
28532;DHT22;15738;44.860;10.066;2023-01-26T03:24:16;3.90;99.90
28532;DHT22;15738;44.860;10.066;2023-01-26T03:27:22;3.90;99.90
28532;DHT22;15738;44.860;10.066;2023-01-26T03:30:13;3.90;99.90
28532;DHT22;15738;44.860;10.066;2023-01-26T03:33:01;4.00;99.90
28532;DHT22;15738;44.860;10.066;2023-01-26T03:35:47;4.00;99.90
28532;DHT22;15738;44.860;10.066;2023-01-26T03:38:36;3.90;99.90
28532;DHT22;15738;44.860;10.066;2023-01-26T03:41:21;4.00;99.90
28532;DHT22;15738;44.860;10.066;2023-01-26T03:44:26;3.90;99.90
28532;DHT22;15738;44.860;10.066;2023-01-26T03:47:30;3.80;99.90
28532;DHT22;15738;44.860;10.066;2023-01-26T03:50:35;3.80;99.90
28532;DHT22;15738;44.860;10.066;2023-01-26T03:53:40;3.80;99.90
28532;DHT22;15738;44.860;10.066;2023-01-26T03:56:44;3.70;99.90
28532;DHT22;15738;44.860;10.066;2023-01-26T03:59:31;3.70;99.90
28532;DHT22;15738;44.860;10.066;2023-01-26T04:02:34;3.70;99.90
28532;DHT22;15738;44.860;10.066;2023-01-26T04:05:39;3.70;99.90
28532;DHT22;15738;44.860;10.066;2023-01-26T04:09:04;3.70;99.90
28532;DHT22;15738;44.860;10.066;2023-01-26T04:11:50;3.80;99.90
28532;DHT22;15738;44.860;10.066;2023-01-26T04:14:37;3.80;99.90
28532;DHT22;15738;44.860;10.066;2023-01-26T04:17:43;3.80;99.90
28532;DHT22;15738;44.860;10.066;2023-01-26T04:20:47;3.80;99.90
28532;DHT22;15738;44.860;10.066;2023-01-26T04:23:52;3.80;99.90
28532;DHT22;15738;44.860;10.066;2023-01-26T04:26:41;3.80;99.90
28532;DHT22;15738;44.860;10.066;2023-01-26T04:29:32;3.70;99.90
28532;DHT22;15738;44.860;10.066;2023-01-26T04:32:18;3.80;99.90
28532;DHT22;15738;44.860;10.066;2023-01-26T04:35:04;3.80;99.90
28532;DHT22;15738;44.860;10.066;2023-01-26T04:37:52;3.70;99.90
28532;DHT22;15738;44.860;10.066;2023-01-26T04:40:37;3.80;99.90
28532;DHT22;15738;44.860;10.066;2023-01-26T04:43:23;3.70;99.90
28532;DHT22;15738;44.860;10.066;2023-01-26T04:46:09;3.70;99.90
28532;DHT22;15738;44.860;10.066;2023-01-26T04:48:57;3.70;99.90
28532;DHT22;15738;44.860;10.066;2023-01-26T04:51:43;3.70;99.90
28532;DHT22;15738;44.860;10.066;2023-01-26T04:54:29;3.70;99.90
28532;DHT22;15738;44.860;10.066;2023-01-26T04:57:14;3.70;99.90
28532;DHT22;15738;44.860;10.066;2023-01-26T05:00:06;3.60;99.90
28532;DHT22;15738;44.860;10.066;2023-01-26T05:02:53;3.60;99.90
28532;DHT22;15738;44.860;10.066;2023-01-26T05:05:38;3.60;99.90
28532;DHT22;15738;44.860;10.066;2023-01-26T05:08:24;3.60;99.90
28532;DHT22;15738;44.860;10.066;2023-01-26T05:11:10;3.70;99.90
28532;DHT22;15738;44.860;10.066;2023-01-26T05:14:18;3.70;99.90
28532;DHT22;15738;44.860;10.066;2023-01-26T05:17:21;3.60;99.90
28532;DHT22;15738;44.860;10.066;2023-01-26T05:20:39;3.60;99.90
28532;DHT22;15738;44.860;10.066;2023-01-26T05:23:44;3.70;99.90
28532;DHT22;15738;44.860;10.066;2023-01-26T05:26:53;3.60;99.90
28532;DHT22;15738;44.860;10.066;2023-01-26T05:29:59;3.70;99.90
28532;DHT22;15738;44.860;10.066;2023-01-26T05:32:48;3.70;99.90
28532;DHT22;15738;44.860;10.066;2023-01-26T05:35:33;3.70;99.90
28532;DHT22;15738;44.860;10.066;2023-01-26T05:38:21;3.70;99.90
28532;DHT22;15738;44.860;10.066;2023-01-26T05:41:07;3.80;99.90
28532;DHT22;15738;44.860;10.066;2023-01-26T05:44:07;3.70;99.90
28532;DHT22;15738;44.860;10.066;2023-01-26T05:47:11;3.70;99.90
28532;DHT22;15738;44.860;10.066;2023-01-26T05:49:58;3.70;99.90
28532;DHT22;15738;44.860;10.066;2023-01-26T05:52:48;3.70;99.90
28532;DHT22;15738;44.860;10.066;2023-01-26T05:55:34;3.70;99.90
28532;DHT22;15738;44.860;10.066;2023-01-26T05:58:20;3.70;99.90
28532;DHT22;15738;44.860;10.066;2023-01-26T06:01:06;3.70;99.90
28532;DHT22;15738;44.860;10.066;2023-01-26T06:04:01;3.70;99.90
28532;DHT22;15738;44.860;10.066;2023-01-26T06:06:55;3.80;99.90
28532;DHT22;15738;44.860;10.066;2023-01-26T06:09:46;3.70;99.90
28532;DHT22;15738;44.860;10.066;2023-01-26T06:12:50;3.70;99.90
28532;DHT22;15738;44.860;10.066;2023-01-26T06:15:54;3.70;99.90
28532;DHT22;15738;44.860;10.066;2023-01-26T06:18:48;3.70;99.90
28532;DHT22;15738;44.860;10.066;2023-01-26T06:21:35;3.70;99.90
28532;DHT22;15738;44.860;10.066;2023-01-26T06:24:21;3.70;99.90
28532;DHT22;15738;44.860;10.066;2023-01-26T06:27:13;3.70;99.90
28532;DHT22;15738;44.860;10.066;2023-01-26T06:30:06;3.70;99.90
28532;DHT22;15738;44.860;10.066;2023-01-26T06:32:53;3.70;99.90
28532;DHT22;15738;44.860;10.066;2023-01-26T06:35:39;3.70;99.90
28532;DHT22;15738;44.860;10.066;2023-01-26T06:38:29;3.80;99.90
28532;DHT22;15738;44.860;10.066;2023-01-26T06:41:15;3.70;99.90
28532;DHT22;15738;44.860;10.066;2023-01-26T06:44:01;3.80;99.90
28532;DHT22;15738;44.860;10.066;2023-01-26T06:46:47;3.80;99.90
28532;DHT22;15738;44.860;10.066;2023-01-26T06:49:33;3.80;99.90
28532;DHT22;15738;44.860;10.066;2023-01-26T06:55:14;3.70;99.90
28532;DHT22;15738;44.860;10.066;2023-01-26T06:58:10;3.70;99.90
28532;DHT22;15738;44.860;10.066;2023-01-26T07:01:21;3.80;99.90
28532;DHT22;15738;44.860;10.066;2023-01-26T07:04:06;3.80;99.90
28532;DHT22;15738;44.860;10.066;2023-01-26T07:06:52;3.90;99.90
28532;DHT22;15738;44.860;10.066;2023-01-26T07:09:38;3.90;99.90
28532;DHT22;15738;44.860;10.066;2023-01-26T07:12:24;3.90;99.90
28532;DHT22;15738;44.860;10.066;2023-01-26T07:15:10;3.90;99.90
28532;DHT22;15738;44.860;10.066;2023-01-26T07:17:56;3.90;99.90
28532;DHT22;15738;44.860;10.066;2023-01-26T07:20:42;3.90;99.90
28532;DHT22;15738;44.860;10.066;2023-01-26T07:23:28;4.00;99.90
28532;DHT22;15738;44.860;10.066;2023-01-26T07:26:14;4.00;99.90
28532;DHT22;15738;44.860;10.066;2023-01-26T07:29:00;4.00;99.90
28532;DHT22;15738;44.860;10.066;2023-01-26T07:31:45;4.00;99.90
28532;DHT22;15738;44.860;10.066;2023-01-26T07:34:31;4.00;99.90
28532;DHT22;15738;44.860;10.066;2023-01-26T07:37:17;4.10;99.90
28532;DHT22;15738;44.860;10.066;2023-01-26T07:40:02;4.20;99.90
28532;DHT22;15738;44.860;10.066;2023-01-26T07:42:48;4.30;99.90
28532;DHT22;15738;44.860;10.066;2023-01-26T07:45:57;4.30;99.90
28532;DHT22;15738;44.860;10.066;2023-01-26T07:48:42;4.30;99.90
28532;DHT22;15738;44.860;10.066;2023-01-26T07:51:28;4.40;99.90
28532;DHT22;15738;44.860;10.066;2023-01-26T07:54:14;4.30;99.90
28532;DHT22;15738;44.860;10.066;2023-01-26T07:57:00;4.30;99.90
28532;DHT22;15738;44.860;10.066;2023-01-26T07:59:45;4.30;99.90
28532;DHT22;15738;44.860;10.066;2023-01-26T08:02:31;4.40;99.90
28532;DHT22;15738;44.860;10.066;2023-01-26T08:05:17;4.40;99.90
28532;DHT22;15738;44.860;10.066;2023-01-26T08:08:03;4.50;99.90
28532;DHT22;15738;44.860;10.066;2023-01-26T08:10:48;4.60;99.90
28532;DHT22;15738;44.860;10.066;2023-01-26T08:13:34;4.60;99.90
28532;DHT22;15738;44.860;10.066;2023-01-26T08:16:21;4.70;99.90
28532;DHT22;15738;44.860;10.066;2023-01-26T08:19:07;4.80;99.90
28532;DHT22;15738;44.860;10.066;2023-01-26T08:21:53;4.80;99.90
28532;DHT22;15738;44.860;10.066;2023-01-26T08:24:39;4.80;99.90
28532;DHT22;15738;44.860;10.066;2023-01-26T08:27:24;4.90;99.90
28532;DHT22;15738;44.860;10.066;2023-01-26T08:30:11;4.90;99.90
28532;DHT22;15738;44.860;10.066;2023-01-26T08:32:57;5.00;99.90
28532;DHT22;15738;44.860;10.066;2023-01-26T08:35:43;5.10;99.90
28532;DHT22;15738;44.860;10.066;2023-01-26T08:38:29;5.10;99.90
28532;DHT22;15738;44.860;10.066;2023-01-26T08:41:15;5.20;99.90
28532;DHT22;15738;44.860;10.066;2023-01-26T08:44:01;5.20;99.90
28532;DHT22;15738;44.860;10.066;2023-01-26T08:46:47;5.20;99.90
28532;DHT22;15738;44.860;10.066;2023-01-26T08:49:32;5.20;99.90
28532;DHT22;15738;44.860;10.066;2023-01-26T08:52:17;5.20;99.90
28532;DHT22;15738;44.860;10.066;2023-01-26T08:55:02;5.20;99.90
28532;DHT22;15738;44.860;10.066;2023-01-26T08:57:52;5.10;99.90
28532;DHT22;15738;44.860;10.066;2023-01-26T09:00:39;5.10;99.90
28532;DHT22;15738;44.860;10.066;2023-01-26T09:03:25;5.20;99.90
28532;DHT22;15738;44.860;10.066;2023-01-26T09:06:10;5.20;99.90
28532;DHT22;15738;44.860;10.066;2023-01-26T09:08:56;5.30;99.90
28532;DHT22;15738;44.860;10.066;2023-01-26T09:11:41;5.40;99.90
28532;DHT22;15738;44.860;10.066;2023-01-26T09:14:27;5.50;99.90
28532;DHT22;15738;44.860;10.066;2023-01-26T09:17:13;5.50;99.90
28532;DHT22;15738;44.860;10.066;2023-01-26T09:19:58;5.60;99.90
28532;DHT22;15738;44.860;10.066;2023-01-26T09:22:44;5.60;99.90
28532;DHT22;15738;44.860;10.066;2023-01-26T09:25:30;5.70;99.90
28532;DHT22;15738;44.860;10.066;2023-01-26T09:28:15;5.80;99.90
28532;DHT22;15738;44.860;10.066;2023-01-26T09:31:04;5.90;99.90
28532;DHT22;15738;44.860;10.066;2023-01-26T09:33:50;6.00;99.90
28532;DHT22;15738;44.860;10.066;2023-01-26T09:36:36;6.10;99.90
28532;DHT22;15738;44.860;10.066;2023-01-26T09:39:24;6.10;99.90
28532;DHT22;15738;44.860;10.066;2023-01-26T09:45:17;6.30;99.90
28532;DHT22;15738;44.860;10.066;2023-01-26T09:51:08;6.40;99.90
28532;DHT22;15738;44.860;10.066;2023-01-26T09:53:56;6.60;99.90
28532;DHT22;15738;44.860;10.066;2023-01-26T09:56:42;6.70;99.90
28532;DHT22;15738;44.860;10.066;2023-01-26T09:59:33;6.60;99.90
28532;DHT22;15738;44.860;10.066;2023-01-26T10:05:21;6.70;99.90
28532;DHT22;15738;44.860;10.066;2023-01-26T10:08:10;6.80;99.90
28532;DHT22;15738;44.860;10.066;2023-01-26T10:10:57;6.80;99.90
28532;DHT22;15738;44.860;10.066;2023-01-26T10:13:47;6.80;99.90
28532;DHT22;15738;44.860;10.066;2023-01-26T10:16:34;6.70;99.90
28532;DHT22;15738;44.860;10.066;2023-01-26T10:22:13;6.70;99.90
28532;DHT22;15738;44.860;10.066;2023-01-26T10:24:59;6.80;99.90
28532;DHT22;15738;44.860;10.066;2023-01-26T10:27:45;6.60;99.90
28532;DHT22;15738;44.860;10.066;2023-01-26T10:30:31;6.70;99.90
28532;DHT22;15738;44.860;10.066;2023-01-26T10:33:18;6.50;99.90
28532;DHT22;15738;44.860;10.066;2023-01-26T10:36:05;6.40;99.90
28532;DHT22;15738;44.860;10.066;2023-01-26T10:38:51;6.40;99.90
28532;DHT22;15738;44.860;10.066;2023-01-26T10:41:37;6.30;99.90
28532;DHT22;15738;44.860;10.066;2023-01-26T10:44:30;6.40;99.90
28532;DHT22;15738;44.860;10.066;2023-01-26T10:47:17;6.50;99.90
28532;DHT22;15738;44.860;10.066;2023-01-26T10:50:12;6.60;99.90
28532;DHT22;15738;44.860;10.066;2023-01-26T10:52:59;6.40;99.90
28532;DHT22;15738;44.860;10.066;2023-01-26T10:55:56;6.60;99.90
28532;DHT22;15738;44.860;10.066;2023-01-26T11:01:30;6.50;99.90
28532;DHT22;15738;44.860;10.066;2023-01-26T11:04:35;6.40;99.90
28532;DHT22;15738;44.860;10.066;2023-01-26T11:07:25;6.50;99.90
28532;DHT22;15738;44.860;10.066;2023-01-26T11:13:19;6.60;99.90
28532;DHT22;15738;44.860;10.066;2023-01-26T11:21:41;6.60;99.90
28532;DHT22;15738;44.860;10.066;2023-01-26T11:24:42;6.60;99.90
28532;DHT22;15738;44.860;10.066;2023-01-26T11:36:02;7.00;99.90
28532;DHT22;15738;44.860;10.066;2023-01-26T11:42:03;7.30;99.90
28532;DHT22;15738;44.860;10.066;2023-01-26T11:45:07;7.30;99.90
28532;DHT22;15738;44.860;10.066;2023-01-26T11:51:08;7.50;99.90
28532;DHT22;15738;44.860;10.066;2023-01-26T11:59:40;7.70;99.90
28532;DHT22;15738;44.860;10.066;2023-01-26T12:02:29;7.60;99.90
28532;DHT22;15738;44.860;10.066;2023-01-26T12:05:19;7.50;99.90
28532;DHT22;15738;44.860;10.066;2023-01-26T12:23:24;8.10;99.90
28532;DHT22;15738;44.860;10.066;2023-01-26T12:26:15;8.10;99.90
28532;DHT22;15738;44.860;10.066;2023-01-26T12:31:58;8.10;99.90
28532;DHT22;15738;44.860;10.066;2023-01-26T12:34:45;8.20;99.90
28532;DHT22;15738;44.860;10.066;2023-01-26T12:40:21;8.30;99.90
28532;DHT22;15738;44.860;10.066;2023-01-26T12:43:15;8.40;99.90
28532;DHT22;15738;44.860;10.066;2023-01-26T12:46:04;8.40;99.90
28532;DHT22;15738;44.860;10.066;2023-01-26T12:49:00;8.40;99.90
28532;DHT22;15738;44.860;10.066;2023-01-26T12:51:49;8.50;99.90
28532;DHT22;15738;44.860;10.066;2023-01-26T12:57:21;8.30;99.90
28532;DHT22;15738;44.860;10.066;2023-01-26T13:00:18;8.40;99.90
28532;DHT22;15738;44.860;10.066;2023-01-26T13:03:24;8.50;99.90
28532;DHT22;15738;44.860;10.066;2023-01-26T13:14:29;8.40;99.90
28532;DHT22;15738;44.860;10.066;2023-01-26T13:20:06;8.20;99.90
28532;DHT22;15738;44.860;10.066;2023-01-26T13:22:59;8.30;99.90
28532;DHT22;15738;44.860;10.066;2023-01-26T13:25:47;8.10;99.90
28532;DHT22;15738;44.860;10.066;2023-01-26T13:28:40;8.10;99.90
28532;DHT22;15738;44.860;10.066;2023-01-26T13:31:30;8.30;99.90
28532;DHT22;15738;44.860;10.066;2023-01-26T13:40:49;8.40;99.90
28532;DHT22;15738;44.860;10.066;2023-01-26T13:46:27;8.50;99.90
28532;DHT22;15738;44.860;10.066;2023-01-26T13:52:20;8.40;99.90
28532;DHT22;15738;44.860;10.066;2023-01-26T13:55:11;8.30;99.90
28532;DHT22;15738;44.860;10.066;2023-01-26T13:58:10;8.30;99.90
28532;DHT22;15738;44.860;10.066;2023-01-26T14:01:00;8.40;99.90
28532;DHT22;15738;44.860;10.066;2023-01-26T14:03:46;8.40;99.90
28532;DHT22;15738;44.860;10.066;2023-01-26T14:06:33;8.50;99.90
28532;DHT22;15738;44.860;10.066;2023-01-26T14:09:20;8.50;99.90
28532;DHT22;15738;44.860;10.066;2023-01-26T14:12:06;8.50;99.90
28532;DHT22;15738;44.860;10.066;2023-01-26T14:14:53;8.50;99.90
28532;DHT22;15738;44.860;10.066;2023-01-26T14:17:50;8.50;99.90
28532;DHT22;15738;44.860;10.066;2023-01-26T14:20:37;8.50;99.90
28532;DHT22;15738;44.860;10.066;2023-01-26T14:23:27;8.40;99.90
28532;DHT22;15738;44.860;10.066;2023-01-26T14:26:18;8.30;99.90
28532;DHT22;15738;44.860;10.066;2023-01-26T14:29:18;8.40;99.90
28532;DHT22;15738;44.860;10.066;2023-01-26T14:32:04;8.40;99.90
28532;DHT22;15738;44.860;10.066;2023-01-26T14:34:58;8.30;99.90
28532;DHT22;15738;44.860;10.066;2023-01-26T14:37:45;8.30;99.90
28532;DHT22;15738;44.860;10.066;2023-01-26T14:40:30;8.20;99.90
28532;DHT22;15738;44.860;10.066;2023-01-26T14:43:16;8.10;99.90
28532;DHT22;15738;44.860;10.066;2023-01-26T14:48:58;8.10;99.90
28532;DHT22;15738;44.860;10.066;2023-01-26T14:51:53;8.10;99.90
28532;DHT22;15738;44.860;10.066;2023-01-26T14:54:39;8.00;99.90
28532;DHT22;15738;44.860;10.066;2023-01-26T14:57:28;8.00;99.90
28532;DHT22;15738;44.860;10.066;2023-01-26T15:00:19;8.00;99.90
28532;DHT22;15738;44.860;10.066;2023-01-26T15:03:09;8.10;99.90
28532;DHT22;15738;44.860;10.066;2023-01-26T15:06:03;8.00;99.90
28532;DHT22;15738;44.860;10.066;2023-01-26T15:09:03;7.90;99.90
28532;DHT22;15738;44.860;10.066;2023-01-26T15:11:56;7.80;99.90
28532;DHT22;15738;44.860;10.066;2023-01-26T15:15:01;7.70;99.90
28532;DHT22;15738;44.860;10.066;2023-01-26T15:17:47;7.70;99.90
28532;DHT22;15738;44.860;10.066;2023-01-26T15:23:36;7.70;99.90
28532;DHT22;15738;44.860;10.066;2023-01-26T15:26:28;7.80;99.90
28532;DHT22;15738;44.860;10.066;2023-01-26T15:29:17;7.70;99.90
28532;DHT22;15738;44.860;10.066;2023-01-26T15:32:03;7.60;99.90
28532;DHT22;15738;44.860;10.066;2023-01-26T15:35:01;7.60;99.90
28532;DHT22;15738;44.860;10.066;2023-01-26T15:37:47;7.60;99.90
28532;DHT22;15738;44.860;10.066;2023-01-26T15:40:32;7.50;99.90
28532;DHT22;15738;44.860;10.066;2023-01-26T15:43:18;7.50;99.90
28532;DHT22;15738;44.860;10.066;2023-01-26T15:46:04;7.40;99.90
28532;DHT22;15738;44.860;10.066;2023-01-26T15:48:50;7.40;99.90
28532;DHT22;15738;44.860;10.066;2023-01-26T15:51:36;7.40;99.90
28532;DHT22;15738;44.860;10.066;2023-01-26T15:54:21;7.40;99.90
28532;DHT22;15738;44.860;10.066;2023-01-26T15:57:08;7.30;99.90
28532;DHT22;15738;44.860;10.066;2023-01-26T15:59:53;7.30;99.90
28532;DHT22;15738;44.860;10.066;2023-01-26T16:02:39;7.30;99.90
28532;DHT22;15738;44.860;10.066;2023-01-26T16:05:25;7.30;99.90
28532;DHT22;15738;44.860;10.066;2023-01-26T16:08:10;7.30;99.90
28532;DHT22;15738;44.860;10.066;2023-01-26T16:10:56;7.30;99.90
28532;DHT22;15738;44.860;10.066;2023-01-26T16:13:41;7.30;99.90
28532;DHT22;15738;44.860;10.066;2023-01-26T16:16:46;7.20;99.90
28532;DHT22;15738;44.860;10.066;2023-01-26T16:19:32;7.10;99.90
28532;DHT22;15738;44.860;10.066;2023-01-26T16:22:20;7.10;99.90
28532;DHT22;15738;44.860;10.066;2023-01-26T16:25:18;7.10;99.90
28532;DHT22;15738;44.860;10.066;2023-01-26T16:28:04;7.10;99.90
28532;DHT22;15738;44.860;10.066;2023-01-26T16:30:50;7.00;99.90
28532;DHT22;15738;44.860;10.066;2023-01-26T16:33:39;6.90;99.90
28532;DHT22;15738;44.860;10.066;2023-01-26T16:36:24;6.80;99.90
28532;DHT22;15738;44.860;10.066;2023-01-26T16:39:10;6.70;99.90
28532;DHT22;15738;44.860;10.066;2023-01-26T16:41:56;6.70;99.90
28532;DHT22;15738;44.860;10.066;2023-01-26T16:44:41;6.70;99.90
28532;DHT22;15738;44.860;10.066;2023-01-26T16:47:27;6.60;99.90
28532;DHT22;15738;44.860;10.066;2023-01-26T16:50:12;6.50;99.90
28532;DHT22;15738;44.860;10.066;2023-01-26T16:52:59;6.50;99.90
28532;DHT22;15738;44.860;10.066;2023-01-26T16:55:47;6.50;99.90
28532;DHT22;15738;44.860;10.066;2023-01-26T16:58:32;6.40;99.90
28532;DHT22;15738;44.860;10.066;2023-01-26T17:04:03;6.30;99.90
28532;DHT22;15738;44.860;10.066;2023-01-26T17:06:49;6.30;99.90
28532;DHT22;15738;44.860;10.066;2023-01-26T17:09:35;6.30;99.90
28532;DHT22;15738;44.860;10.066;2023-01-26T17:12:20;6.20;99.90
28532;DHT22;15738;44.860;10.066;2023-01-26T17:15:06;6.10;99.90
28532;DHT22;15738;44.860;10.066;2023-01-26T17:17:52;6.10;99.90
28532;DHT22;15738;44.860;10.066;2023-01-26T17:20:38;6.10;99.90
28532;DHT22;15738;44.860;10.066;2023-01-26T17:23:25;6.00;99.90
28532;DHT22;15738;44.860;10.066;2023-01-26T17:26:11;5.90;99.90
28532;DHT22;15738;44.860;10.066;2023-01-26T17:28:57;5.90;99.90
28532;DHT22;15738;44.860;10.066;2023-01-26T17:31:43;5.80;99.90
28532;DHT22;15738;44.860;10.066;2023-01-26T17:34:28;5.70;99.90
28532;DHT22;15738;44.860;10.066;2023-01-26T17:37:15;5.70;99.90
28532;DHT22;15738;44.860;10.066;2023-01-26T17:40:00;5.70;99.90
28532;DHT22;15738;44.860;10.066;2023-01-26T17:42:46;5.60;99.90
28532;DHT22;15738;44.860;10.066;2023-01-26T17:45:32;4.50;99.90
28532;DHT22;15738;44.860;10.066;2023-01-26T17:48:17;5.50;99.90
28532;DHT22;15738;44.860;10.066;2023-01-26T17:51:04;5.50;99.90
28532;DHT22;15738;44.860;10.066;2023-01-26T17:53:50;5.40;99.90
28532;DHT22;15738;44.860;10.066;2023-01-26T17:56:35;5.30;99.90
28532;DHT22;15738;44.860;10.066;2023-01-26T17:59:21;5.20;99.90
28532;DHT22;15738;44.860;10.066;2023-01-26T18:02:08;5.20;99.90
28532;DHT22;15738;44.860;10.066;2023-01-26T18:04:54;5.10;99.90
28532;DHT22;15738;44.860;10.066;2023-01-26T18:07:40;5.10;99.90
28532;DHT22;15738;44.860;10.066;2023-01-26T18:10:25;5.10;99.90
28532;DHT22;15738;44.860;10.066;2023-01-26T18:13:14;5.10;99.90
28532;DHT22;15738;44.860;10.066;2023-01-26T18:16:00;5.00;99.90
28532;DHT22;15738;44.860;10.066;2023-01-26T18:18:46;4.90;99.90
28532;DHT22;15738;44.860;10.066;2023-01-26T18:21:31;4.80;99.90
28532;DHT22;15738;44.860;10.066;2023-01-26T18:24:19;4.80;99.90
28532;DHT22;15738;44.860;10.066;2023-01-26T18:27:04;4.70;99.90
28532;DHT22;15738;44.860;10.066;2023-01-26T18:29:50;4.70;99.90
28532;DHT22;15738;44.860;10.066;2023-01-26T18:32:35;4.70;99.90
28532;DHT22;15738;44.860;10.066;2023-01-26T18:35:21;4.70;99.90
28532;DHT22;15738;44.860;10.066;2023-01-26T18:38:07;4.60;99.90
28532;DHT22;15738;44.860;10.066;2023-01-26T18:40:52;4.60;99.90
28532;DHT22;15738;44.860;10.066;2023-01-26T18:43:38;4.60;99.90
28532;DHT22;15738;44.860;10.066;2023-01-26T18:46:26;4.60;99.90
28532;DHT22;15738;44.860;10.066;2023-01-26T18:49:12;4.50;99.90
28532;DHT22;15738;44.860;10.066;2023-01-26T18:51:57;4.40;99.90
28532;DHT22;15738;44.860;10.066;2023-01-26T18:54:42;4.40;99.90
28532;DHT22;15738;44.860;10.066;2023-01-26T18:57:28;4.30;99.90
28532;DHT22;15738;44.860;10.066;2023-01-26T19:00:14;4.40;99.90
28532;DHT22;15738;44.860;10.066;2023-01-26T19:02:59;4.30;99.90
28532;DHT22;15738;44.860;10.066;2023-01-26T19:05:45;4.30;99.90
28532;DHT22;15738;44.860;10.066;2023-01-26T19:08:31;4.30;99.90
28532;DHT22;15738;44.860;10.066;2023-01-26T19:11:17;4.20;99.90
28532;DHT22;15738;44.860;10.066;2023-01-26T19:14:03;4.20;99.90
28532;DHT22;15738;44.860;10.066;2023-01-26T19:16:49;4.20;99.90
28532;DHT22;15738;44.860;10.066;2023-01-26T19:19:34;4.20;99.90
28532;DHT22;15738;44.860;10.066;2023-01-26T19:22:20;4.10;99.90
28532;DHT22;15738;44.860;10.066;2023-01-26T19:25:06;4.10;99.90
28532;DHT22;15738;44.860;10.066;2023-01-26T19:27:52;4.10;99.90
28532;DHT22;15738;44.860;10.066;2023-01-26T19:30:37;4.00;99.90
28532;DHT22;15738;44.860;10.066;2023-01-26T19:33:23;4.00;99.90